createdAt,value
2019-03-05T00:00:30.694Z,24.97
2019-03-05T00:05:35.790Z,27.00
2019-03-05T00:10:37.937Z,25.47
2019-03-05T00:15:42.616Z,18.77
2019-03-05T00:20:47.576Z,21.43
2019-03-05T00:25:54.604Z,18.20
2019-03-05T00:31:23.450Z,21.43
2019-03-05T00:37:12.357Z,16.57
2019-03-05T00:42:55.286Z,12.80
2019-03-05T00:48:45.876Z,20.90
2019-03-05T00:54:40.279Z,22.17
2019-03-05T01:00:12.050Z,24.70
2019-03-05T01:06:01.780Z,22.30
2019-03-05T01:11:03.876Z,22.70
2019-03-05T01:16:06.154Z,20.40
2019-03-05T01:21:08.425Z,16.33
2019-03-05T01:26:11.316Z,13.43
2019-03-05T01:31:30.839Z,17.63
2019-03-05T01:36:39.807Z,21.83
2019-03-05T01:41:41.956Z,17.27
2019-03-05T01:46:47.712Z,15.63
2019-03-05T01:51:51.172Z,16.40
2019-03-05T01:56:53.472Z,15.10
2019-03-05T02:01:55.555Z,14.17
2019-03-05T02:06:59.223Z,17.33
2019-03-05T02:12:01.294Z,20.63
2019-03-05T02:17:06.181Z,20.80
2019-03-05T02:22:41.012Z,17.33
2019-03-05T02:28:20.611Z,18.93
2019-03-05T02:34:10.841Z,18.67
2019-03-05T02:39:41.044Z,12.57
2019-03-05T02:45:21.213Z,15.23
2019-03-05T02:51:03.643Z,10.20
2019-03-05T02:56:26.388Z,9.90
2019-03-05T03:01:47.754Z,9.10
2019-03-05T03:06:53.151Z,12.17
2019-03-05T03:11:56.327Z,8.83
2019-03-05T03:17:10.577Z,13.67
2019-03-05T03:22:16.641Z,16.23
2019-03-05T03:27:18.699Z,13.90
2019-03-05T03:32:21.128Z,17.77
2019-03-05T03:37:24.410Z,10.50
2019-03-05T03:42:27.630Z,11.47
2019-03-05T03:47:33.928Z,14.13
2019-03-05T03:52:35.977Z,17.73
2019-03-05T03:57:38.199Z,23.93
2019-03-05T04:02:43.646Z,14.07
2019-03-05T04:07:50.261Z,12.60
2019-03-05T04:12:54.828Z,16.77
2019-03-05T04:17:56.888Z,18.30
2019-03-05T04:23:01.704Z,18.13
2019-03-05T04:28:03.719Z,17.17
2019-03-05T04:33:05.941Z,21.23
2019-03-05T04:38:15.338Z,17.73
2019-03-05T04:43:20.493Z,20.43
2019-03-05T04:48:24.931Z,18.53
2019-03-05T04:53:29.720Z,24.43
2019-03-05T04:58:33.819Z,20.80
2019-03-05T05:03:36.006Z,21.50
2019-03-05T05:08:38.023Z,17.97
2019-03-05T05:13:41.920Z,15.30
2019-03-05T05:18:44.000Z,18.70
2019-03-05T05:23:48.434Z,18.77
2019-03-05T05:28:50.599Z,19.43
2019-03-05T05:33:54.151Z,22.27
2019-03-05T05:39:00.131Z,19.67
2019-03-05T05:44:04.984Z,20.57
2019-03-05T05:49:08.455Z,27.07
2019-03-05T05:54:10.620Z,22.70
2019-03-05T05:59:17.529Z,20.27
2019-03-05T06:04:19.736Z,20.43
2019-03-05T06:09:21.774Z,19.30
2019-03-05T06:14:23.864Z,29.90
2019-03-05T06:19:30.752Z,19.07
2019-03-05T06:24:32.963Z,13.23
2019-03-05T06:29:34.985Z,15.77
2019-03-05T06:34:41.300Z,13.67
2019-03-05T06:39:50.462Z,13.03
2019-03-05T06:44:54.351Z,12.00
2019-03-05T06:49:56.412Z,13.17
2019-03-05T06:55:06.042Z,10.13
2019-03-05T07:00:16.856Z,14.63
2019-03-05T07:06:00.804Z,19.10
2019-03-05T07:11:48.254Z,19.70
2019-03-05T07:17:00.543Z,10.30
2019-03-05T07:22:30.746Z,18.83
2019-03-05T07:27:38.144Z,15.10
2019-03-05T07:32:40.149Z,15.80
2019-03-05T07:37:42.208Z,15.90
2019-03-05T07:42:45.917Z,14.60
2019-03-05T07:47:50.571Z,11.47
2019-03-05T07:52:53.932Z,12.93
2019-03-05T07:57:59.558Z,13.13
2019-03-05T08:03:01.670Z,16.60
2019-03-05T08:08:40.332Z,18.87
2019-03-05T08:14:02.544Z,15.73
2019-03-05T08:19:04.590Z,20.27
2019-03-05T08:24:06.620Z,15.43
2019-03-05T08:29:11.487Z,17.63
2019-03-05T08:34:16.043Z,16.53
2019-03-05T08:39:20.974Z,13.13
2019-03-05T08:44:26.015Z,16.77
2019-03-05T08:49:28.017Z,17.30
2019-03-05T08:54:35.606Z,20.13
2019-03-05T08:59:37.643Z,17.17
2019-03-05T09:04:39.775Z,17.30
2019-03-05T09:09:41.813Z,16.50
2019-03-05T09:14:43.884Z,17.43
2019-03-05T09:19:50.566Z,17.00
2019-03-05T09:24:52.922Z,19.77
2019-03-05T09:29:56.381Z,14.20
2019-03-05T09:34:58.672Z,17.60
2019-03-05T09:40:00.792Z,16.93
2019-03-05T09:45:05.148Z,19.33
2019-03-05T09:50:09.525Z,13.57
2019-03-05T09:55:14.791Z,11.77
2019-03-05T10:00:18.575Z,13.53
2019-03-05T10:05:22.072Z,17.33
2019-03-05T10:10:29.557Z,15.63
2019-03-05T10:15:33.030Z,16.30
2019-03-05T10:20:35.175Z,20.43
2019-03-05T10:25:37.495Z,15.33
2019-03-05T10:30:43.212Z,13.93
2019-03-05T10:35:45.797Z,18.83
2019-03-05T10:40:52.768Z,22.10
2019-03-05T10:45:55.009Z,12.37
2019-03-05T10:51:00.730Z,13.27
2019-03-05T10:56:03.752Z,11.67
2019-03-05T11:01:10.303Z,9.73
2019-03-05T11:06:12.554Z,9.27
2019-03-05T11:11:14.621Z,16.70
2019-03-05T11:16:17.609Z,14.50
2019-03-05T11:21:24.632Z,11.43
2019-03-05T11:26:30.224Z,11.63
2019-03-05T11:31:32.261Z,13.57
2019-03-05T11:36:36.965Z,12.50
2019-03-05T11:41:39.013Z,9.87
2019-03-05T11:46:41.373Z,16.20
2019-03-05T11:51:49.929Z,10.73
2019-03-05T11:56:52.279Z,13.87
2019-03-05T12:01:56.186Z,11.67
2019-03-05T12:06:58.371Z,12.70
2019-03-05T12:12:01.767Z,15.10
2019-03-05T12:17:03.791Z,14.17
2019-03-05T12:22:05.836Z,10.80
2019-03-05T12:27:13.355Z,10.03
2019-03-05T12:32:16.335Z,13.30
2019-03-05T12:37:18.464Z,18.73
2019-03-05T12:42:20.577Z,12.33
2019-03-05T12:47:28.350Z,14.27
2019-03-05T12:52:32.247Z,10.03
2019-03-05T12:57:34.334Z,14.00
2019-03-05T13:02:41.239Z,7.07
2019-03-05T13:07:43.986Z,6.60
2019-03-05T13:12:49.311Z,14.95
2019-03-05T13:17:53.434Z,17.87
2019-03-05T13:22:55.532Z,12.80
2019-03-05T13:28:01.819Z,10.07
2019-03-05T13:33:01.836Z,10.00
2019-03-05T13:38:07.356Z,10.03
2019-03-05T13:43:07.931Z,6.97
2019-03-05T13:48:46.602Z,11.03
2019-03-05T13:54:05.867Z,10.20
2019-03-05T13:59:36.510Z,14.53
2019-03-05T14:05:04.198Z,13.53
2019-03-05T14:10:06.295Z,13.70
2019-03-05T14:15:08.932Z,17.90
2019-03-05T14:20:15.153Z,10.27
2019-03-05T14:25:18.361Z,8.63
2019-03-05T14:30:21.339Z,12.47
2019-03-05T14:35:29.048Z,12.37
2019-03-05T14:40:31.403Z,11.87
2019-03-05T14:45:37.559Z,11.35
2019-03-05T14:50:40.362Z,15.93
2019-03-05T14:55:42.545Z,7.47
2019-03-05T15:00:52.203Z,12.40
2019-03-05T15:05:54.518Z,17.57
2019-03-05T15:10:58.303Z,12.97
2019-03-05T15:16:02.544Z,10.37
2019-03-05T15:21:07.099Z,8.57
2019-03-05T15:26:09.630Z,11.93
2019-03-05T15:31:14.349Z,7.50
2019-03-05T15:36:23.771Z,8.93
2019-03-05T15:41:20.629Z,11.93
2019-03-05T15:46:28.653Z,15.57
2019-03-05T15:51:33.164Z,11.37
2019-03-05T15:56:38.076Z,12.60
2019-03-05T16:01:40.311Z,12.37
2019-03-05T16:06:45.823Z,9.43
2019-03-05T16:11:48.012Z,14.50
2019-03-05T16:16:51.568Z,12.50
2019-03-05T16:21:55.295Z,12.93
2019-03-05T16:26:57.912Z,8.10
2019-03-05T16:32:17.401Z,10.57
2019-03-05T16:37:39.258Z,12.93
2019-03-05T16:43:01.166Z,19.33
2019-03-05T16:48:29.355Z,11.73
2019-03-05T16:53:48.580Z,12.80
2019-03-05T16:59:10.843Z,12.80
2019-03-05T17:04:23.708Z,8.83
2019-03-05T17:09:48.625Z,16.80
2019-03-05T17:14:50.747Z,14.47
2019-03-05T17:19:55.247Z,8.27
2019-03-05T17:24:57.584Z,14.37
2019-03-05T17:30:01.355Z,8.33
2019-03-05T17:35:05.332Z,11.53
2019-03-05T17:40:08.778Z,10.93
2019-03-05T17:45:15.244Z,15.50
2019-03-05T17:50:18.569Z,10.07
2019-03-05T17:55:24.088Z,16.37
2019-03-05T18:00:29.774Z,19.27
2019-03-05T18:05:32.056Z,18.80
2019-03-05T18:10:34.179Z,20.35
2019-03-05T18:15:40.368Z,24.33
2019-03-05T18:20:42.485Z,10.93
2019-03-05T18:25:44.608Z,20.07
2019-03-05T18:30:52.383Z,20.10
2019-03-05T18:35:54.691Z,26.70
2019-03-05T18:40:58.033Z,24.73
2019-03-05T18:46:00.273Z,22.50
2019-03-05T18:51:06.406Z,21.50
2019-03-05T18:56:10.324Z,24.63
2019-03-05T19:01:14.879Z,20.43
2019-03-05T19:06:23.845Z,31.97
2019-03-05T19:11:25.956Z,24.43
2019-03-05T19:16:31.072Z,21.00
2019-03-05T19:21:35.048Z,21.47
2019-03-05T19:26:37.263Z,22.33
2019-03-05T19:31:39.345Z,27.47
2019-03-05T19:36:44.309Z,24.70
2019-03-05T19:41:55.615Z,22.57
2019-03-05T19:46:50.799Z,29.07
2019-03-05T19:51:52.906Z,20.23
2019-03-05T19:56:54.972Z,24.50
2019-03-05T20:02:03.392Z,22.30
2019-03-05T20:07:09.493Z,18.73
2019-03-05T20:12:11.576Z,20.93
2019-03-05T20:17:13.601Z,17.67
2019-03-05T20:22:17.584Z,24.47
2019-03-05T20:27:25.216Z,24.33
2019-03-05T20:32:33.259Z,31.82
2019-03-05T20:37:41.309Z,21.57
2019-03-05T20:42:47.869Z,21.13
2019-03-05T20:47:49.887Z,16.70
2019-03-05T20:52:52.520Z,18.83
2019-03-05T20:57:54.603Z,26.73
2019-03-05T21:03:02.070Z,20.47
2019-03-05T21:08:05.585Z,20.27
2019-03-05T21:13:07.881Z,14.13
2019-03-05T21:18:13.094Z,24.33
2019-03-05T21:23:15.360Z,17.20
2019-03-05T21:28:17.374Z,19.80
2019-03-05T21:33:19.583Z,21.00
2019-03-05T21:38:21.935Z,24.23
2019-03-05T21:43:24.183Z,16.43
2019-03-05T21:48:26.221Z,16.37
2019-03-05T21:53:28.330Z,20.97
2019-03-05T21:58:31.440Z,20.40
2019-03-05T22:03:33.685Z,15.43
2019-03-05T22:08:36.017Z,19.63
2019-03-05T22:13:40.740Z,17.97
2019-03-05T22:18:44.170Z,16.70
2019-03-05T22:23:49.251Z,15.23
2019-03-05T22:28:51.805Z,20.03
2019-03-05T22:33:55.885Z,16.97
2019-03-05T22:39:00.779Z,17.80
2019-03-05T22:44:05.507Z,13.13
2019-03-05T22:49:07.594Z,19.97
2019-03-05T22:54:09.748Z,15.10
2019-03-05T22:59:14.037Z,15.90
2019-03-05T23:04:21.548Z,13.43
2019-03-05T23:09:24.755Z,18.80
2019-03-05T23:14:26.920Z,17.03
2019-03-05T23:19:31.990Z,17.47
2019-03-05T23:24:37.083Z,16.17
2019-03-05T23:29:50.476Z,15.33
2019-03-05T23:34:58.478Z,16.57
2019-03-05T23:40:00.730Z,15.53
2019-03-05T23:45:05.805Z,15.77
2019-03-05T23:50:08.046Z,19.27
2019-03-05T23:55:11.226Z,15.30
